sensor_id;sensor_type;location;lat;lon;timestamp;P1;durP1;ratioP1;P2;durP2;ratioP2
1837;SDS011;918;50.796;6.772;2023-07-20T00:02:18;3.33;;;3.03;;
1837;SDS011;918;50.796;6.772;2023-07-20T00:04:44;4.20;;;3.23;;
1837;SDS011;918;50.796;6.772;2023-07-20T00:07:09;3.73;;;3.17;;
1837;SDS011;918;50.796;6.772;2023-07-20T00:09:34;3.50;;;3.20;;
1837;SDS011;918;50.796;6.772;2023-07-20T00:11:59;4.47;;;3.33;;
1837;SDS011;918;50.796;6.772;2023-07-20T00:14:25;3.47;;;3.10;;
1837;SDS011;918;50.796;6.772;2023-07-20T00:16:50;3.80;;;3.60;;
1837;SDS011;918;50.796;6.772;2023-07-20T00:19:24;4.13;;;3.20;;
1837;SDS011;918;50.796;6.772;2023-07-20T00:21:50;2.93;;;2.73;;
1837;SDS011;918;50.796;6.772;2023-07-20T00:24:16;4.60;;;2.90;;
1837;SDS011;918;50.796;6.772;2023-07-20T00:26:41;3.63;;;3.33;;
1837;SDS011;918;50.796;6.772;2023-07-20T00:29:07;4.83;;;3.50;;
1837;SDS011;918;50.796;6.772;2023-07-20T00:31:32;3.97;;;3.50;;
1837;SDS011;918;50.796;6.772;2023-07-20T00:33:57;3.70;;;3.00;;
1837;SDS011;918;50.796;6.772;2023-07-20T00:36:22;4.60;;;3.00;;
1837;SDS011;918;50.796;6.772;2023-07-20T00:38:48;3.77;;;3.47;;
1837;SDS011;918;50.796;6.772;2023-07-20T00:41:13;3.60;;;3.30;;
1837;SDS011;918;50.796;6.772;2023-07-20T00:43:38;3.30;;;3.00;;
1837;SDS011;918;50.796;6.772;2023-07-20T00:46:03;3.50;;;3.20;;
1837;SDS011;918;50.796;6.772;2023-07-20T00:48:30;3.20;;;2.90;;
1837;SDS011;918;50.796;6.772;2023-07-20T00:50:56;3.60;;;3.30;;
1837;SDS011;918;50.796;6.772;2023-07-20T00:53:23;3.60;;;3.30;;
1837;SDS011;918;50.796;6.772;2023-07-20T00:55:48;3.50;;;3.27;;
1837;SDS011;918;50.796;6.772;2023-07-20T00:58:13;3.90;;;3.60;;
1837;SDS011;918;50.796;6.772;2023-07-20T01:00:39;7.00;;;3.37;;
1837;SDS011;918;50.796;6.772;2023-07-20T01:03:04;3.60;;;3.30;;
1837;SDS011;918;50.796;6.772;2023-07-20T01:05:40;4.50;;;3.97;;
1837;SDS011;918;50.796;6.772;2023-07-20T01:08:12;3.53;;;3.33;;
1837;SDS011;918;50.796;6.772;2023-07-20T01:10:43;5.70;;;3.53;;
1837;SDS011;918;50.796;6.772;2023-07-20T01:13:14;3.93;;;3.50;;
1837;SDS011;918;50.796;6.772;2023-07-20T01:15:40;3.97;;;3.67;;
1837;SDS011;918;50.796;6.772;2023-07-20T01:18:05;4.87;;;4.00;;
1837;SDS011;918;50.796;6.772;2023-07-20T01:20:31;5.07;;;4.37;;
1837;SDS011;918;50.796;6.772;2023-07-20T01:23:09;4.60;;;3.90;;
1837;SDS011;918;50.796;6.772;2023-07-20T01:31:25;5.47;;;3.80;;
1837;SDS011;918;50.796;6.772;2023-07-20T01:33:55;4.17;;;3.87;;
1837;SDS011;918;50.796;6.772;2023-07-20T01:36:22;5.00;;;4.10;;
1837;SDS011;918;50.796;6.772;2023-07-20T01:38:49;5.73;;;4.57;;
1837;SDS011;918;50.796;6.772;2023-07-20T01:41:15;3.50;;;3.20;;
1837;SDS011;918;50.796;6.772;2023-07-20T01:43:40;4.80;;;4.10;;
1837;SDS011;918;50.796;6.772;2023-07-20T01:46:05;4.07;;;3.70;;
1837;SDS011;918;50.796;6.772;2023-07-20T01:48:31;3.97;;;3.50;;
1837;SDS011;918;50.796;6.772;2023-07-20T01:50:56;3.93;;;3.63;;
1837;SDS011;918;50.796;6.772;2023-07-20T01:53:22;3.43;;;3.20;;
1837;SDS011;918;50.796;6.772;2023-07-20T01:55:47;3.80;;;3.50;;
1837;SDS011;918;50.796;6.772;2023-07-20T01:58:13;3.60;;;3.30;;
1837;SDS011;918;50.796;6.772;2023-07-20T02:00:38;4.47;;;3.70;;
1837;SDS011;918;50.796;6.772;2023-07-20T02:03:03;6.20;;;4.37;;
1837;SDS011;918;50.796;6.772;2023-07-20T02:05:29;4.90;;;3.95;;
1837;SDS011;918;50.796;6.772;2023-07-20T02:07:54;4.17;;;3.83;;
1837;SDS011;918;50.796;6.772;2023-07-20T02:10:19;4.43;;;3.97;;
1837;SDS011;918;50.796;6.772;2023-07-20T02:12:45;4.23;;;3.77;;
1837;SDS011;918;50.796;6.772;2023-07-20T02:15:10;4.40;;;4.00;;
1837;SDS011;918;50.796;6.772;2023-07-20T02:17:36;5.97;;;4.13;;
1837;SDS011;918;50.796;6.772;2023-07-20T02:20:02;4.07;;;3.67;;
1837;SDS011;918;50.796;6.772;2023-07-20T02:22:28;4.63;;;3.87;;
1837;SDS011;918;50.796;6.772;2023-07-20T02:24:53;4.60;;;4.20;;
1837;SDS011;918;50.796;6.772;2023-07-20T02:27:18;4.10;;;3.63;;
1837;SDS011;918;50.796;6.772;2023-07-20T02:29:43;5.93;;;4.03;;
1837;SDS011;918;50.796;6.772;2023-07-20T02:32:09;4.10;;;3.43;;
1837;SDS011;918;50.796;6.772;2023-07-20T02:34:34;4.23;;;3.77;;
1837;SDS011;918;50.796;6.772;2023-07-20T02:37:00;4.00;;;3.60;;
1837;SDS011;918;50.796;6.772;2023-07-20T02:39:26;4.60;;;3.63;;
1837;SDS011;918;50.796;6.772;2023-07-20T02:41:52;6.13;;;4.27;;
1837;SDS011;918;50.796;6.772;2023-07-20T02:44:17;4.10;;;3.70;;
1837;SDS011;918;50.796;6.772;2023-07-20T02:46:42;4.07;;;3.67;;
1837;SDS011;918;50.796;6.772;2023-07-20T02:49:08;3.87;;;3.10;;
1837;SDS011;918;50.796;6.772;2023-07-20T02:51:33;3.70;;;3.40;;
1837;SDS011;918;50.796;6.772;2023-07-20T02:53:59;3.70;;;3.40;;
1837;SDS011;918;50.796;6.772;2023-07-20T02:56:24;5.00;;;4.23;;
1837;SDS011;918;50.796;6.772;2023-07-20T02:58:49;5.47;;;3.80;;
1837;SDS011;918;50.796;6.772;2023-07-20T03:01:15;4.87;;;3.70;;
1837;SDS011;918;50.796;6.772;2023-07-20T03:03:40;4.83;;;3.73;;
1837;SDS011;918;50.796;6.772;2023-07-20T03:06:11;4.97;;;4.57;;
1837;SDS011;918;50.796;6.772;2023-07-20T03:08:37;4.00;;;3.70;;
1837;SDS011;918;50.796;6.772;2023-07-20T03:11:02;5.10;;;4.60;;
1837;SDS011;918;50.796;6.772;2023-07-20T03:13:27;7.07;;;6.07;;
1837;SDS011;918;50.796;6.772;2023-07-20T03:15:53;7.07;;;6.37;;
1837;SDS011;918;50.796;6.772;2023-07-20T03:18:18;7.90;;;7.20;;
1837;SDS011;918;50.796;6.772;2023-07-20T03:20:43;7.67;;;6.93;;
1837;SDS011;918;50.796;6.772;2023-07-20T03:23:09;7.37;;;6.77;;
1837;SDS011;918;50.796;6.772;2023-07-20T03:25:35;7.30;;;6.60;;
1837;SDS011;918;50.796;6.772;2023-07-20T03:28:02;6.83;;;5.73;;
1837;SDS011;918;50.796;6.772;2023-07-20T03:30:27;5.80;;;5.20;;
1837;SDS011;918;50.796;6.772;2023-07-20T03:32:53;7.33;;;5.30;;
1837;SDS011;918;50.796;6.772;2023-07-20T03:35:18;5.87;;;4.60;;
1837;SDS011;918;50.796;6.772;2023-07-20T03:37:43;4.57;;;3.60;;
1837;SDS011;918;50.796;6.772;2023-07-20T03:40:08;4.40;;;3.77;;
1837;SDS011;918;50.796;6.772;2023-07-20T03:42:34;3.93;;;3.50;;
1837;SDS011;918;50.796;6.772;2023-07-20T03:44:59;4.60;;;4.10;;
1837;SDS011;918;50.796;6.772;2023-07-20T03:47:25;5.87;;;4.27;;
1837;SDS011;918;50.796;6.772;2023-07-20T03:49:50;7.27;;;6.10;;
1837;SDS011;918;50.796;6.772;2023-07-20T03:52:15;8.27;;;5.60;;
1837;SDS011;918;50.796;6.772;2023-07-20T03:54:40;5.70;;;4.33;;
1837;SDS011;918;50.796;6.772;2023-07-20T03:57:06;7.50;;;4.40;;
1837;SDS011;918;50.796;6.772;2023-07-20T03:59:31;4.87;;;4.10;;
1837;SDS011;918;50.796;6.772;2023-07-20T04:01:56;4.53;;;4.13;;
1837;SDS011;918;50.796;6.772;2023-07-20T04:04:22;4.07;;;3.40;;
1837;SDS011;918;50.796;6.772;2023-07-20T04:06:47;5.90;;;4.03;;
1837;SDS011;918;50.796;6.772;2023-07-20T04:09:12;4.10;;;3.20;;
1837;SDS011;918;50.796;6.772;2023-07-20T04:11:38;9.00;;;3.90;;
1837;SDS011;918;50.796;6.772;2023-07-20T04:14:03;4.20;;;3.60;;
1837;SDS011;918;50.796;6.772;2023-07-20T04:16:28;6.53;;;3.67;;
1837;SDS011;918;50.796;6.772;2023-07-20T04:18:57;4.00;;;3.40;;
1837;SDS011;918;50.796;6.772;2023-07-20T04:21:22;10.30;;;5.00;;
1837;SDS011;918;50.796;6.772;2023-07-20T04:23:48;18.20;;;6.07;;
1837;SDS011;918;50.796;6.772;2023-07-20T04:26:13;12.93;;;5.30;;
1837;SDS011;918;50.796;6.772;2023-07-20T04:28:40;17.20;;;7.00;;
1837;SDS011;918;50.796;6.772;2023-07-20T04:31:11;12.93;;;6.55;;
1837;SDS011;918;50.796;6.772;2023-07-20T04:33:39;14.13;;;6.43;;
1837;SDS011;918;50.796;6.772;2023-07-20T04:36:05;8.60;;;4.90;;
1837;SDS011;918;50.796;6.772;2023-07-20T04:38:30;6.83;;;4.33;;
1837;SDS011;918;50.796;6.772;2023-07-20T04:40:56;4.70;;;4.30;;
1837;SDS011;918;50.796;6.772;2023-07-20T04:43:21;4.87;;;4.27;;
1837;SDS011;918;50.796;6.772;2023-07-20T04:45:46;6.55;;;4.68;;
1837;SDS011;918;50.796;6.772;2023-07-20T04:48:15;4.73;;;4.33;;
1837;SDS011;918;50.796;6.772;2023-07-20T04:50:42;6.13;;;5.20;;
1837;SDS011;918;50.796;6.772;2023-07-20T04:53:08;5.97;;;5.43;;
1837;SDS011;918;50.796;6.772;2023-07-20T04:55:35;6.22;;;5.60;;
1837;SDS011;918;50.796;6.772;2023-07-20T04:58:01;6.47;;;5.83;;
1837;SDS011;918;50.796;6.772;2023-07-20T05:00:28;5.73;;;5.20;;
1837;SDS011;918;50.796;6.772;2023-07-20T05:02:54;6.57;;;5.43;;
1837;SDS011;918;50.796;6.772;2023-07-20T05:05:19;10.07;;;6.57;;
1837;SDS011;918;50.796;6.772;2023-07-20T05:07:44;5.30;;;4.90;;
1837;SDS011;918;50.796;6.772;2023-07-20T05:10:09;8.80;;;6.50;;
1837;SDS011;918;50.796;6.772;2023-07-20T05:12:35;9.20;;;6.40;;
1837;SDS011;918;50.796;6.772;2023-07-20T05:15:00;8.00;;;6.57;;
1837;SDS011;918;50.796;6.772;2023-07-20T05:17:25;9.30;;;5.80;;
1837;SDS011;918;50.796;6.772;2023-07-20T05:19:50;6.80;;;6.00;;
1837;SDS011;918;50.796;6.772;2023-07-20T05:22:16;8.47;;;6.10;;
1837;SDS011;918;50.796;6.772;2023-07-20T05:24:41;8.17;;;5.60;;
1837;SDS011;918;50.796;6.772;2023-07-20T05:27:06;7.67;;;5.73;;
1837;SDS011;918;50.796;6.772;2023-07-20T05:29:32;6.20;;;5.70;;
1837;SDS011;918;50.796;6.772;2023-07-20T05:31:58;6.10;;;5.60;;
1837;SDS011;918;50.796;6.772;2023-07-20T05:34:23;6.00;;;5.50;;
1837;SDS011;918;50.796;6.772;2023-07-20T05:39:35;5.77;;;5.17;;
1837;SDS011;918;50.796;6.772;2023-07-20T05:42:00;7.07;;;5.90;;
1837;SDS011;918;50.796;6.772;2023-07-20T05:44:26;6.47;;;5.87;;
1837;SDS011;918;50.796;6.772;2023-07-20T05:46:51;5.70;;;5.20;;
1837;SDS011;918;50.796;6.772;2023-07-20T05:49:16;6.70;;;6.03;;
1837;SDS011;918;50.796;6.772;2023-07-20T05:51:41;6.50;;;5.53;;
1837;SDS011;918;50.796;6.772;2023-07-20T05:54:07;6.67;;;6.10;;
1837;SDS011;918;50.796;6.772;2023-07-20T05:56:33;6.27;;;5.67;;
1837;SDS011;918;50.796;6.772;2023-07-20T05:58:58;6.47;;;5.83;;
1837;SDS011;918;50.796;6.772;2023-07-20T06:01:23;6.77;;;5.33;;
1837;SDS011;918;50.796;6.772;2023-07-20T06:03:52;7.20;;;5.40;;
1837;SDS011;918;50.796;6.772;2023-07-20T06:06:17;6.40;;;5.50;;
1837;SDS011;918;50.796;6.772;2023-07-20T06:08:42;8.23;;;6.30;;
1837;SDS011;918;50.796;6.772;2023-07-20T06:11:07;6.50;;;5.97;;
1837;SDS011;918;50.796;6.772;2023-07-20T06:13:33;7.47;;;6.50;;
1837;SDS011;918;50.796;6.772;2023-07-20T06:15:58;7.33;;;6.63;;
1837;SDS011;918;50.796;6.772;2023-07-20T06:18:23;9.53;;;8.73;;
1837;SDS011;918;50.796;6.772;2023-07-20T06:20:49;9.03;;;8.13;;
1837;SDS011;918;50.796;6.772;2023-07-20T06:23:15;8.30;;;7.50;;
1837;SDS011;918;50.796;6.772;2023-07-20T06:25:41;9.60;;;6.80;;
1837;SDS011;918;50.796;6.772;2023-07-20T06:28:06;9.23;;;6.20;;
1837;SDS011;918;50.796;6.772;2023-07-20T06:30:33;7.03;;;6.40;;
1837;SDS011;918;50.796;6.772;2023-07-20T06:32:59;8.13;;;7.53;;
1837;SDS011;918;50.796;6.772;2023-07-20T06:35:25;10.10;;;6.87;;
1837;SDS011;918;50.796;6.772;2023-07-20T06:37:50;9.87;;;6.73;;
1837;SDS011;918;50.796;6.772;2023-07-20T06:40:15;8.53;;;7.30;;
1837;SDS011;918;50.796;6.772;2023-07-20T06:42:40;7.23;;;6.57;;
1837;SDS011;918;50.796;6.772;2023-07-20T06:45:06;8.07;;;6.33;;
1837;SDS011;918;50.796;6.772;2023-07-20T06:47:31;6.90;;;6.20;;
1837;SDS011;918;50.796;6.772;2023-07-20T06:49:57;7.53;;;6.63;;
1837;SDS011;918;50.796;6.772;2023-07-20T06:52:22;7.40;;;6.80;;
1837;SDS011;918;50.796;6.772;2023-07-20T06:54:47;12.00;;;7.23;;
1837;SDS011;918;50.796;6.772;2023-07-20T06:57:12;6.77;;;6.27;;
1837;SDS011;918;50.796;6.772;2023-07-20T06:59:38;8.73;;;6.47;;
1837;SDS011;918;50.796;6.772;2023-07-20T07:02:03;8.37;;;7.77;;
1837;SDS011;918;50.796;6.772;2023-07-20T07:04:28;7.93;;;7.20;;
1837;SDS011;918;50.796;6.772;2023-07-20T07:06:54;8.47;;;7.40;;
1837;SDS011;918;50.796;6.772;2023-07-20T07:09:19;6.57;;;5.97;;
1837;SDS011;918;50.796;6.772;2023-07-20T07:11:45;6.97;;;6.47;;
1837;SDS011;918;50.796;6.772;2023-07-20T07:14:11;6.73;;;6.20;;
1837;SDS011;918;50.796;6.772;2023-07-20T07:16:37;5.13;;;4.80;;
1837;SDS011;918;50.796;6.772;2023-07-20T07:19:02;5.67;;;5.17;;
1837;SDS011;918;50.796;6.772;2023-07-20T07:21:28;6.43;;;5.80;;
1837;SDS011;918;50.796;6.772;2023-07-20T07:23:53;5.67;;;5.23;;
1837;SDS011;918;50.796;6.772;2023-07-20T07:26:22;5.37;;;4.93;;
1837;SDS011;918;50.796;6.772;2023-07-20T07:28:47;4.83;;;4.43;;
1837;SDS011;918;50.796;6.772;2023-07-20T07:31:12;5.13;;;4.73;;
1837;SDS011;918;50.796;6.772;2023-07-20T07:33:38;4.90;;;4.50;;
1837;SDS011;918;50.796;6.772;2023-07-20T07:36:03;4.07;;;3.77;;
1837;SDS011;918;50.796;6.772;2023-07-20T07:38:28;4.50;;;4.20;;
1837;SDS011;918;50.796;6.772;2023-07-20T07:40:54;5.00;;;4.50;;
1837;SDS011;918;50.796;6.772;2023-07-20T07:43:19;4.90;;;4.40;;
1837;SDS011;918;50.796;6.772;2023-07-20T07:45:44;5.00;;;4.40;;
1837;SDS011;918;50.796;6.772;2023-07-20T07:48:09;5.17;;;4.70;;
1837;SDS011;918;50.796;6.772;2023-07-20T07:50:39;3.97;;;3.50;;
1837;SDS011;918;50.796;6.772;2023-07-20T07:53:07;4.73;;;3.43;;
1837;SDS011;918;50.796;6.772;2023-07-20T07:55:33;3.57;;;3.27;;
1837;SDS011;918;50.796;6.772;2023-07-20T07:57:59;3.27;;;3.07;;
1837;SDS011;918;50.796;6.772;2023-07-20T08:00:25;2.80;;;2.60;;
1837;SDS011;918;50.796;6.772;2023-07-20T08:02:50;4.00;;;3.60;;
1837;SDS011;918;50.796;6.772;2023-07-20T08:05:16;3.17;;;2.87;;
1837;SDS011;918;50.796;6.772;2023-07-20T08:07:41;3.30;;;3.07;;
1837;SDS011;918;50.796;6.772;2023-07-20T08:10:07;3.30;;;3.00;;
1837;SDS011;918;50.796;6.772;2023-07-20T08:12:33;2.50;;;2.40;;
1837;SDS011;918;50.796;6.772;2023-07-20T08:14:58;3.90;;;2.80;;
1837;SDS011;918;50.796;6.772;2023-07-20T08:17:23;3.63;;;3.40;;
1837;SDS011;918;50.796;6.772;2023-07-20T08:19:49;5.13;;;2.83;;
1837;SDS011;918;50.796;6.772;2023-07-20T08:22:14;3.30;;;3.00;;
1837;SDS011;918;50.796;6.772;2023-07-20T08:24:40;3.23;;;3.03;;
1837;SDS011;918;50.796;6.772;2023-07-20T08:27:07;2.90;;;2.70;;
1837;SDS011;918;50.796;6.772;2023-07-20T08:29:33;3.27;;;3.07;;
1837;SDS011;918;50.796;6.772;2023-07-20T08:31:58;3.73;;;3.07;;
1837;SDS011;918;50.796;6.772;2023-07-20T08:34:23;3.93;;;3.13;;
1837;SDS011;918;50.796;6.772;2023-07-20T08:36:48;3.30;;;2.90;;
1837;SDS011;918;50.796;6.772;2023-07-20T08:39:14;2.97;;;2.60;;
1837;SDS011;918;50.796;6.772;2023-07-20T08:41:39;2.73;;;2.60;;
1837;SDS011;918;50.796;6.772;2023-07-20T08:44:07;4.70;;;2.27;;
1837;SDS011;918;50.796;6.772;2023-07-20T08:46:33;3.40;;;2.97;;
1837;SDS011;918;50.796;6.772;2023-07-20T08:49:00;3.23;;;2.90;;
1837;SDS011;918;50.796;6.772;2023-07-20T08:51:27;2.70;;;2.53;;
1837;SDS011;918;50.796;6.772;2023-07-20T08:53:53;2.43;;;2.07;;
1837;SDS011;918;50.796;6.772;2023-07-20T08:56:18;2.60;;;2.40;;
1837;SDS011;918;50.796;6.772;2023-07-20T08:58:45;3.07;;;2.77;;
1837;SDS011;918;50.796;6.772;2023-07-20T09:01:10;2.27;;;2.17;;
1837;SDS011;918;50.796;6.772;2023-07-20T09:03:36;2.93;;;2.70;;
1837;SDS011;918;50.796;6.772;2023-07-20T09:06:04;2.00;;;1.90;;
1837;SDS011;918;50.796;6.772;2023-07-20T09:08:29;2.37;;;2.17;;
1837;SDS011;918;50.796;6.772;2023-07-20T09:10:55;2.17;;;1.90;;
1837;SDS011;918;50.796;6.772;2023-07-20T09:13:20;2.20;;;2.00;;
1837;SDS011;918;50.796;6.772;2023-07-20T09:15:46;2.93;;;2.07;;
1837;SDS011;918;50.796;6.772;2023-07-20T09:18:12;2.37;;;2.17;;
1837;SDS011;918;50.796;6.772;2023-07-20T09:20:48;3.30;;;3.03;;
1837;SDS011;918;50.796;6.772;2023-07-20T09:23:14;3.60;;;2.63;;
1837;SDS011;918;50.796;6.772;2023-07-20T09:25:39;3.20;;;2.83;;
1837;SDS011;918;50.796;6.772;2023-07-20T09:28:05;2.20;;;2.10;;
1837;SDS011;918;50.796;6.772;2023-07-20T09:30:31;2.47;;;2.27;;
1837;SDS011;918;50.796;6.772;2023-07-20T09:32:56;3.20;;;1.80;;
1837;SDS011;918;50.796;6.772;2023-07-20T09:35:22;1.97;;;1.87;;
1837;SDS011;918;50.796;6.772;2023-07-20T09:40:19;2.73;;;2.53;;
1837;SDS011;918;50.796;6.772;2023-07-20T09:42:45;3.33;;;2.20;;
1837;SDS011;918;50.796;6.772;2023-07-20T09:45:10;2.60;;;2.30;;
1837;SDS011;918;50.796;6.772;2023-07-20T09:47:36;1.57;;;1.47;;
1837;SDS011;918;50.796;6.772;2023-07-20T09:50:06;2.17;;;1.97;;
1837;SDS011;918;50.796;6.772;2023-07-20T09:52:39;2.37;;;2.20;;
1837;SDS011;918;50.796;6.772;2023-07-20T09:55:09;2.10;;;2.00;;
1837;SDS011;918;50.796;6.772;2023-07-20T09:57:36;3.00;;;2.00;;
1837;SDS011;918;50.796;6.772;2023-07-20T10:00:03;2.40;;;1.97;;
1837;SDS011;918;50.796;6.772;2023-07-20T10:02:33;2.47;;;1.80;;
1837;SDS011;918;50.796;6.772;2023-07-20T10:05:02;2.00;;;1.90;;
1837;SDS011;918;50.796;6.772;2023-07-20T10:07:33;2.40;;;2.20;;
1837;SDS011;918;50.796;6.772;2023-07-20T10:09:59;2.30;;;2.00;;
1837;SDS011;918;50.796;6.772;2023-07-20T10:12:26;2.13;;;1.93;;
1837;SDS011;918;50.796;6.772;2023-07-20T10:14:54;2.50;;;2.30;;
1837;SDS011;918;50.796;6.772;2023-07-20T10:17:37;3.93;;;2.30;;
1837;SDS011;918;50.796;6.772;2023-07-20T10:20:07;2.35;;;2.10;;
1837;SDS011;918;50.796;6.772;2023-07-20T10:22:35;2.10;;;1.90;;
1837;SDS011;918;50.796;6.772;2023-07-20T10:25:00;1.80;;;1.70;;
1837;SDS011;918;50.796;6.772;2023-07-20T10:27:26;2.07;;;1.87;;
1837;SDS011;918;50.796;6.772;2023-07-20T10:29:52;2.30;;;1.70;;
1837;SDS011;918;50.796;6.772;2023-07-20T10:32:20;2.83;;;2.20;;
1837;SDS011;918;50.796;6.772;2023-07-20T10:34:51;2.23;;;2.13;;
1837;SDS011;918;50.796;6.772;2023-07-20T10:43:03;2.47;;;1.80;;
1837;SDS011;918;50.796;6.772;2023-07-20T10:45:36;3.07;;;1.77;;
1837;SDS011;918;50.796;6.772;2023-07-20T10:48:14;2.50;;;1.97;;
1837;SDS011;918;50.796;6.772;2023-07-20T10:50:41;3.70;;;1.67;;
1837;SDS011;918;50.796;6.772;2023-07-20T10:53:10;2.00;;;1.80;;
1837;SDS011;918;50.796;6.772;2023-07-20T10:55:37;1.50;;;1.50;;
1837;SDS011;918;50.796;6.772;2023-07-20T10:58:13;2.50;;;2.00;;
1837;SDS011;918;50.796;6.772;2023-07-20T11:00:54;1.80;;;1.70;;
1837;SDS011;918;50.796;6.772;2023-07-20T11:03:28;2.60;;;2.30;;
1837;SDS011;918;50.796;6.772;2023-07-20T11:05:56;1.90;;;1.80;;
1837;SDS011;918;50.796;6.772;2023-07-20T11:11:24;2.37;;;1.73;;
1837;SDS011;918;50.796;6.772;2023-07-20T11:13:58;2.83;;;1.90;;
1837;SDS011;918;50.796;6.772;2023-07-20T11:19:05;3.00;;;2.30;;
1837;SDS011;918;50.796;6.772;2023-07-20T11:21:40;2.25;;;2.05;;
1837;SDS011;918;50.796;6.772;2023-07-20T11:24:06;2.07;;;1.97;;
1837;SDS011;918;50.796;6.772;2023-07-20T11:26:45;2.43;;;2.23;;
1837;SDS011;918;50.796;6.772;2023-07-20T11:29:12;1.83;;;1.73;;
1837;SDS011;918;50.796;6.772;2023-07-20T11:31:41;2.33;;;2.13;;
1837;SDS011;918;50.796;6.772;2023-07-20T11:34:10;2.80;;;2.13;;
1837;SDS011;918;50.796;6.772;2023-07-20T11:36:38;1.70;;;1.60;;
1837;SDS011;918;50.796;6.772;2023-07-20T11:39:05;2.43;;;2.23;;
1837;SDS011;918;50.796;6.772;2023-07-20T11:41:31;2.20;;;2.00;;
1837;SDS011;918;50.796;6.772;2023-07-20T11:43:57;2.27;;;2.17;;
1837;SDS011;918;50.796;6.772;2023-07-20T11:46:22;1.77;;;1.63;;
1837;SDS011;918;50.796;6.772;2023-07-20T11:48:48;1.70;;;1.60;;
1837;SDS011;918;50.796;6.772;2023-07-20T11:51:16;2.03;;;1.90;;
1837;SDS011;918;50.796;6.772;2023-07-20T11:53:45;2.40;;;2.03;;
1837;SDS011;918;50.796;6.772;2023-07-20T11:56:12;2.10;;;1.77;;
1837;SDS011;918;50.796;6.772;2023-07-20T11:58:41;1.60;;;1.50;;
1837;SDS011;918;50.796;6.772;2023-07-20T12:01:09;2.47;;;1.93;;
1837;SDS011;918;50.796;6.772;2023-07-20T12:03:36;2.50;;;1.80;;
1837;SDS011;918;50.796;6.772;2023-07-20T12:06:08;2.30;;;2.10;;
1837;SDS011;918;50.796;6.772;2023-07-20T12:08:34;2.20;;;1.83;;
1837;SDS011;918;50.796;6.772;2023-07-20T12:11:00;2.50;;;2.40;;
1837;SDS011;918;50.796;6.772;2023-07-20T12:13:44;2.20;;;2.07;;
1837;SDS011;918;50.796;6.772;2023-07-20T12:16:10;3.60;;;1.80;;
1837;SDS011;918;50.796;6.772;2023-07-20T12:18:36;1.70;;;1.60;;
1837;SDS011;918;50.796;6.772;2023-07-20T12:21:01;1.60;;;1.50;;
1837;SDS011;918;50.796;6.772;2023-07-20T12:23:34;2.20;;;1.63;;
1837;SDS011;918;50.796;6.772;2023-07-20T12:26:00;1.60;;;1.50;;
1837;SDS011;918;50.796;6.772;2023-07-20T12:28:25;2.63;;;1.70;;
1837;SDS011;918;50.796;6.772;2023-07-20T12:30:51;2.03;;;1.93;;
1837;SDS011;918;50.796;6.772;2023-07-20T12:33:21;1.90;;;1.80;;
1837;SDS011;918;50.796;6.772;2023-07-20T12:35:47;6.93;;;2.40;;
1837;SDS011;918;50.796;6.772;2023-07-20T12:38:13;1.97;;;1.87;;
1837;SDS011;918;50.796;6.772;2023-07-20T12:40:38;1.60;;;1.50;;
1837;SDS011;918;50.796;6.772;2023-07-20T12:43:05;2.63;;;1.50;;
1837;SDS011;918;50.796;6.772;2023-07-20T12:45:31;2.30;;;1.73;;
1837;SDS011;918;50.796;6.772;2023-07-20T12:47:56;2.00;;;1.80;;
1837;SDS011;918;50.796;6.772;2023-07-20T12:50:21;1.63;;;1.53;;
1837;SDS011;918;50.796;6.772;2023-07-20T12:52:47;2.33;;;1.90;;
1837;SDS011;918;50.796;6.772;2023-07-20T12:55:12;1.60;;;1.50;;
1837;SDS011;918;50.796;6.772;2023-07-20T12:57:37;2.13;;;2.03;;
1837;SDS011;918;50.796;6.772;2023-07-20T13:00:03;1.80;;;1.70;;
1837;SDS011;918;50.796;6.772;2023-07-20T13:02:32;1.90;;;1.80;;
1837;SDS011;918;50.796;6.772;2023-07-20T13:04:58;1.63;;;1.53;;
1837;SDS011;918;50.796;6.772;2023-07-20T13:07:33;2.33;;;1.73;;
1837;SDS011;918;50.796;6.772;2023-07-20T13:10:00;1.65;;;1.50;;
1837;SDS011;918;50.796;6.772;2023-07-20T13:12:26;1.70;;;1.53;;
1837;SDS011;918;50.796;6.772;2023-07-20T13:14:52;1.53;;;1.43;;
1837;SDS011;918;50.796;6.772;2023-07-20T13:17:18;2.07;;;1.77;;
1837;SDS011;918;50.796;6.772;2023-07-20T13:19:43;1.67;;;1.57;;
1837;SDS011;918;50.796;6.772;2023-07-20T13:22:08;1.70;;;1.60;;
1837;SDS011;918;50.796;6.772;2023-07-20T13:24:33;1.93;;;1.73;;
1837;SDS011;918;50.796;6.772;2023-07-20T13:26:59;2.93;;;2.23;;
1837;SDS011;918;50.796;6.772;2023-07-20T13:29:24;2.50;;;2.10;;
1837;SDS011;918;50.796;6.772;2023-07-20T13:31:50;2.10;;;1.70;;
1837;SDS011;918;50.796;6.772;2023-07-20T13:34:15;7.17;;;2.10;;
1837;SDS011;918;50.796;6.772;2023-07-20T13:36:40;2.13;;;1.80;;
1837;SDS011;918;50.796;6.772;2023-07-20T13:39:05;1.80;;;1.70;;
1837;SDS011;918;50.796;6.772;2023-07-20T13:41:31;4.17;;;1.93;;
1837;SDS011;918;50.796;6.772;2023-07-20T13:43:57;1.90;;;1.80;;
1837;SDS011;918;50.796;6.772;2023-07-20T13:46:22;1.93;;;1.73;;
1837;SDS011;918;50.796;6.772;2023-07-20T13:48:48;2.27;;;1.60;;
1837;SDS011;918;50.796;6.772;2023-07-20T13:51:13;1.80;;;1.70;;
1837;SDS011;918;50.796;6.772;2023-07-20T13:53:39;1.97;;;1.73;;
1837;SDS011;918;50.796;6.772;2023-07-20T13:56:04;1.50;;;1.40;;
1837;SDS011;918;50.796;6.772;2023-07-20T13:58:29;1.90;;;1.80;;
1837;SDS011;918;50.796;6.772;2023-07-20T14:00:55;1.93;;;1.83;;
1837;SDS011;918;50.796;6.772;2023-07-20T14:03:20;2.00;;;1.63;;
1837;SDS011;918;50.796;6.772;2023-07-20T14:05:45;1.40;;;1.37;;
1837;SDS011;918;50.796;6.772;2023-07-20T14:08:11;1.83;;;1.70;;
1837;SDS011;918;50.796;6.772;2023-07-20T14:10:36;1.93;;;1.83;;
1837;SDS011;918;50.796;6.772;2023-07-20T14:13:01;1.67;;;1.57;;
1837;SDS011;918;50.796;6.772;2023-07-20T14:15:27;1.77;;;1.63;;
1837;SDS011;918;50.796;6.772;2023-07-20T14:17:52;1.92;;;1.70;;
1837;SDS011;918;50.796;6.772;2023-07-20T14:20:17;1.90;;;1.80;;
1837;SDS011;918;50.796;6.772;2023-07-20T14:22:42;2.27;;;1.83;;
1837;SDS011;918;50.796;6.772;2023-07-20T14:25:09;1.87;;;1.77;;
1837;SDS011;918;50.796;6.772;2023-07-20T14:27:34;1.57;;;1.47;;
1837;SDS011;918;50.796;6.772;2023-07-20T14:29:59;1.70;;;1.60;;
1837;SDS011;918;50.796;6.772;2023-07-20T14:32:25;2.10;;;1.90;;
1837;SDS011;918;50.796;6.772;2023-07-20T14:34:50;1.73;;;1.63;;
1837;SDS011;918;50.796;6.772;2023-07-20T14:37:16;2.63;;;2.23;;
1837;SDS011;918;50.796;6.772;2023-07-20T14:39:41;2.57;;;2.17;;
1837;SDS011;918;50.796;6.772;2023-07-20T14:42:06;2.70;;;1.53;;
1837;SDS011;918;50.796;6.772;2023-07-20T14:44:32;1.70;;;1.60;;
1837;SDS011;918;50.796;6.772;2023-07-20T14:46:58;1.83;;;1.60;;
1837;SDS011;918;50.796;6.772;2023-07-20T14:49:23;2.20;;;2.00;;
1837;SDS011;918;50.796;6.772;2023-07-20T14:51:50;1.63;;;1.53;;
1837;SDS011;918;50.796;6.772;2023-07-20T14:54:16;2.33;;;1.80;;
1837;SDS011;918;50.796;6.772;2023-07-20T14:56:48;1.60;;;1.50;;
1837;SDS011;918;50.796;6.772;2023-07-20T14:59:15;1.97;;;1.87;;
1837;SDS011;918;50.796;6.772;2023-07-20T15:01:42;3.40;;;1.70;;
1837;SDS011;918;50.796;6.772;2023-07-20T15:04:08;2.20;;;1.57;;
1837;SDS011;918;50.796;6.772;2023-07-20T15:06:34;1.60;;;1.50;;
1837;SDS011;918;50.796;6.772;2023-07-20T15:08:59;2.27;;;1.70;;
1837;SDS011;918;50.796;6.772;2023-07-20T15:11:25;1.80;;;1.70;;
1837;SDS011;918;50.796;6.772;2023-07-20T15:13:51;1.63;;;1.53;;
1837;SDS011;918;50.796;6.772;2023-07-20T15:16:16;2.10;;;2.00;;
1837;SDS011;918;50.796;6.772;2023-07-20T15:18:41;2.10;;;2.00;;
1837;SDS011;918;50.796;6.772;2023-07-20T15:21:06;1.80;;;1.70;;
1837;SDS011;918;50.796;6.772;2023-07-20T15:23:32;1.70;;;1.60;;
1837;SDS011;918;50.796;6.772;2023-07-20T15:25:57;1.93;;;1.83;;
1837;SDS011;918;50.796;6.772;2023-07-20T15:28:22;4.20;;;1.37;;
1837;SDS011;918;50.796;6.772;2023-07-20T15:30:47;9.20;;;2.03;;
1837;SDS011;918;50.796;6.772;2023-07-20T15:33:12;3.13;;;1.57;;
1837;SDS011;918;50.796;6.772;2023-07-20T15:35:39;2.40;;;1.47;;
1837;SDS011;918;50.796;6.772;2023-07-20T15:38:04;1.87;;;1.67;;
1837;SDS011;918;50.796;6.772;2023-07-20T15:40:29;1.60;;;1.50;;
1837;SDS011;918;50.796;6.772;2023-07-20T15:42:54;1.97;;;1.23;;
1837;SDS011;918;50.796;6.772;2023-07-20T15:45:20;2.23;;;1.47;;
1837;SDS011;918;50.796;6.772;2023-07-20T15:47:46;1.50;;;1.43;;